createdAt,value
2023-03-03T00:01:18.222Z,2.75
2023-03-03T00:03:45.192Z,4.53
2023-03-03T00:06:14.606Z,3.40
2023-03-03T00:08:42.120Z,2.47
2023-03-03T00:11:09.857Z,4.10
2023-03-03T00:13:56.942Z,1.48
2023-03-03T00:16:38.546Z,3.80
2023-03-03T00:19:15.306Z,1.55
2023-03-03T00:21:45.848Z,2.03
2023-03-03T00:24:15.404Z,3.38
2023-03-03T00:26:46.714Z,4.20
2023-03-03T00:29:36.119Z,1.83
2023-03-03T00:32:23.396Z,1.90
2023-03-03T00:34:52.178Z,3.15
2023-03-03T00:37:34.918Z,3.30
2023-03-03T00:40:13.880Z,2.60
2023-03-03T00:42:41.276Z,2.20
2023-03-03T00:45:30.047Z,2.85
2023-03-03T00:47:57.940Z,2.83
2023-03-03T00:50:29.791Z,2.55
2023-03-03T00:53:04.708Z,1.73
2023-03-03T00:55:32.063Z,1.25
2023-03-03T00:57:59.101Z,4.15
2023-03-03T01:00:26.041Z,2.15
2023-03-03T01:02:53.378Z,1.85
2023-03-03T01:05:20.860Z,2.03
2023-03-03T01:07:47.877Z,2.72
2023-03-03T01:10:14.808Z,3.33
2023-03-03T01:12:42.029Z,3.08
2023-03-03T01:15:11.050Z,3.25
2023-03-03T01:17:40.136Z,1.05
2023-03-03T01:20:08.835Z,2.13
2023-03-03T01:22:36.322Z,2.50
2023-03-03T01:25:06.636Z,4.40
2023-03-03T01:27:35.425Z,3.93
2023-03-03T01:30:03.312Z,3.13
2023-03-03T01:32:30.366Z,2.53
2023-03-03T01:34:57.615Z,1.73
2023-03-03T01:37:24.488Z,2.60
2023-03-03T01:39:52.859Z,3.42
2023-03-03T01:42:20.881Z,2.70
2023-03-03T01:44:48.339Z,2.53
2023-03-03T01:47:21.461Z,3.10
2023-03-03T01:50:04.461Z,1.83
2023-03-03T01:52:38.401Z,3.45
2023-03-03T01:55:13.352Z,1.27
2023-03-03T01:57:46.276Z,1.08
2023-03-03T02:00:14.030Z,4.47
2023-03-03T02:02:43.878Z,1.90
2023-03-03T02:05:11.507Z,3.92
2023-03-03T02:07:38.823Z,3.53
2023-03-03T02:10:15.491Z,0.70
2023-03-03T02:12:55.570Z,2.80
2023-03-03T02:15:32.468Z,1.95
2023-03-03T02:18:02.044Z,2.58
2023-03-03T02:20:50.651Z,1.58
2023-03-03T02:23:33.448Z,2.33
2023-03-03T02:26:07.638Z,3.17
2023-03-03T02:28:36.347Z,2.58
2023-03-03T02:31:06.193Z,1.73
2023-03-03T02:33:33.194Z,1.80
2023-03-03T02:36:00.081Z,2.00
2023-03-03T02:39:04.227Z,1.42
2023-03-03T02:41:41.383Z,1.73
2023-03-03T02:44:13.054Z,2.65
2023-03-03T02:46:43.152Z,1.80
2023-03-03T02:49:12.220Z,1.83
2023-03-03T02:51:40.182Z,2.55
2023-03-03T02:54:09.003Z,1.85
2023-03-03T02:56:36.567Z,2.20
2023-03-03T02:59:04.640Z,1.63
2023-03-03T03:01:32.430Z,2.33
2023-03-03T03:03:59.296Z,2.58
2023-03-03T03:06:26.157Z,1.55
2023-03-03T03:08:53.078Z,1.25
2023-03-03T03:11:19.925Z,2.65
2023-03-03T03:13:46.761Z,3.75
2023-03-03T03:16:13.615Z,2.08
2023-03-03T03:18:40.423Z,2.47
2023-03-03T03:21:09.875Z,1.85
2023-03-03T03:23:36.957Z,1.27
2023-03-03T03:26:04.364Z,1.75
2023-03-03T03:28:31.591Z,1.67
2023-03-03T03:30:58.624Z,1.67
2023-03-03T03:33:25.570Z,2.03
2023-03-03T03:35:52.429Z,1.35
2023-03-03T03:38:19.425Z,2.50
2023-03-03T03:40:46.223Z,1.25
2023-03-03T03:43:13.179Z,2.72
2023-03-03T03:45:43.166Z,1.27
2023-03-03T03:48:10.234Z,1.20
2023-03-03T03:50:37.939Z,2.53
2023-03-03T03:53:05.814Z,3.28
2023-03-03T03:55:33.787Z,5.10
2023-03-03T03:58:00.679Z,1.17
2023-03-03T04:00:27.525Z,3.05
2023-03-03T04:02:54.519Z,1.40
2023-03-03T04:05:21.564Z,3.25
2023-03-03T04:07:48.513Z,1.30
2023-03-03T04:10:15.488Z,2.55
2023-03-03T04:12:42.281Z,1.77
2023-03-03T04:15:11.932Z,1.33
2023-03-03T04:17:39.177Z,3.00
2023-03-03T04:20:07.543Z,1.55
2023-03-03T04:22:36.255Z,2.45
2023-03-03T04:25:07.534Z,1.52
2023-03-03T04:30:03.412Z,1.05
2023-03-03T04:32:30.838Z,2.00
2023-03-03T04:35:07.256Z,1.35
2023-03-03T04:37:35.037Z,4.20
2023-03-03T04:40:01.907Z,1.23
2023-03-03T04:42:29.192Z,2.80
2023-03-03T04:44:56.134Z,1.95
2023-03-03T04:47:23.004Z,0.93
2023-03-03T04:49:49.908Z,1.60
2023-03-03T04:52:16.824Z,2.03
2023-03-03T04:54:43.877Z,1.40
2023-03-03T04:57:10.716Z,0.80
2023-03-03T04:59:37.584Z,1.80
2023-03-03T05:02:07.354Z,1.75
2023-03-03T05:04:34.838Z,1.52
2023-03-03T05:07:01.900Z,3.10
2023-03-03T05:09:28.911Z,0.80
2023-03-03T05:11:55.933Z,0.68
2023-03-03T05:14:22.865Z,1.45
2023-03-03T05:16:49.764Z,1.02
2023-03-03T05:19:16.677Z,1.77
2023-03-03T05:21:43.540Z,1.13
2023-03-03T05:24:11.761Z,1.35
2023-03-03T05:26:39.624Z,1.92
2023-03-03T05:29:06.916Z,4.72
2023-03-03T05:31:34.052Z,7.25
2023-03-03T05:34:00.931Z,3.35
2023-03-03T05:36:28.105Z,7.05
2023-03-03T05:38:55.083Z,6.55
2023-03-03T05:41:22.332Z,9.15
2023-03-03T05:43:49.196Z,8.18
2023-03-03T05:46:17.100Z,14.55
2023-03-03T05:48:44.080Z,33.72
2023-03-03T05:51:11.424Z,58.17
2023-03-03T05:53:38.307Z,121.68
2023-03-03T05:56:05.556Z,127.93
2023-03-03T05:58:32.470Z,164.38
2023-03-03T06:00:59.428Z,135.55
2023-03-03T06:03:26.342Z,161.65
2023-03-03T06:05:54.000Z,134.90
2023-03-03T06:08:20.867Z,128.13
2023-03-03T06:10:47.909Z,126.85
2023-03-03T06:13:15.078Z,104.90
2023-03-03T06:15:42.011Z,118.35
2023-03-03T06:18:09.102Z,96.75
2023-03-03T06:20:36.982Z,94.85
2023-03-03T06:23:04.012Z,86.70
2023-03-03T06:25:30.879Z,78.63
2023-03-03T06:27:58.427Z,68.35
2023-03-03T06:30:27.245Z,66.93
2023-03-03T06:32:55.011Z,78.32
2023-03-03T06:35:21.818Z,72.75
2023-03-03T06:37:51.067Z,64.63
2023-03-03T06:40:18.177Z,59.33
2023-03-03T06:42:45.244Z,62.90
2023-03-03T06:45:12.891Z,50.03
2023-03-03T06:47:39.737Z,43.75
2023-03-03T06:50:07.588Z,40.50
2023-03-03T06:52:34.464Z,41.22
2023-03-03T06:55:10.331Z,37.00
2023-03-03T06:57:37.395Z,32.38
2023-03-03T07:00:24.431Z,27.80
2023-03-03T07:03:00.200Z,47.25
2023-03-03T07:05:29.273Z,28.08
2023-03-03T07:07:57.491Z,21.15
2023-03-03T07:10:30.494Z,17.20
2023-03-03T07:13:07.212Z,27.95
2023-03-03T07:15:36.377Z,19.33
2023-03-03T07:18:05.714Z,10.85
2023-03-03T07:20:42.247Z,6.55
2023-03-03T07:23:34.501Z,7.80
2023-03-03T07:26:01.373Z,8.00
2023-03-03T07:28:33.373Z,12.85
2023-03-03T07:31:00.436Z,7.65
2023-03-03T07:33:29.339Z,11.60
2023-03-03T07:35:59.048Z,7.38
2023-03-03T07:38:39.775Z,8.40
2023-03-03T07:41:17.380Z,11.40
2023-03-03T07:43:55.177Z,7.82
2023-03-03T07:46:41.825Z,6.00
2023-03-03T07:49:30.883Z,4.25
2023-03-03T07:52:00.201Z,5.90
2023-03-03T07:54:43.832Z,5.72
2023-03-03T07:57:13.710Z,3.42
2023-03-03T08:00:16.868Z,5.07
2023-03-03T08:03:04.118Z,3.92
2023-03-03T08:05:47.346Z,6.20
2023-03-03T08:08:31.438Z,3.47
2023-03-03T08:11:02.610Z,5.07
2023-03-03T08:16:09.882Z,4.68
2023-03-03T08:18:49.743Z,4.28
2023-03-03T08:21:20.862Z,5.50
2023-03-03T08:23:52.384Z,4.25
2023-03-03T08:26:20.856Z,3.88
2023-03-03T08:28:48.257Z,6.00
2023-03-03T08:31:27.799Z,3.80
2023-03-03T08:34:02.239Z,2.33
2023-03-03T08:36:30.280Z,6.20
2023-03-03T08:38:57.660Z,4.18
2023-03-03T08:41:25.322Z,2.10
2023-03-03T08:43:52.493Z,1.98
2023-03-03T08:46:20.115Z,2.85
2023-03-03T08:48:47.478Z,2.03
2023-03-03T08:51:14.552Z,1.52
2023-03-03T08:53:42.324Z,2.88
2023-03-03T08:56:10.765Z,3.03
2023-03-03T08:58:38.466Z,2.80
2023-03-03T09:01:06.502Z,4.68
2023-03-03T09:03:33.814Z,3.42
2023-03-03T09:06:01.180Z,3.60
2023-03-03T09:08:28.949Z,5.22
2023-03-03T09:10:57.319Z,1.92
2023-03-03T09:13:24.723Z,3.00
2023-03-03T09:15:52.158Z,1.98
2023-03-03T09:18:26.756Z,1.48
2023-03-03T09:20:57.912Z,1.45
2023-03-03T09:25:55.938Z,1.40
2023-03-03T09:28:30.039Z,1.65
2023-03-03T09:31:01.089Z,2.83
2023-03-03T09:33:41.926Z,1.02
2023-03-03T09:36:27.019Z,3.25
2023-03-03T09:38:56.545Z,1.77
2023-03-03T09:41:54.696Z,2.50
2023-03-03T09:44:55.670Z,1.75
2023-03-03T09:47:29.627Z,2.25
2023-03-03T09:50:19.000Z,2.15
2023-03-03T09:53:16.590Z,1.33
2023-03-03T09:56:06.678Z,1.13
2023-03-03T09:58:55.023Z,0.70
2023-03-03T10:01:48.415Z,1.25
2023-03-03T10:04:25.810Z,1.10
2023-03-03T10:07:03.501Z,2.35
2023-03-03T10:10:01.905Z,1.65
2023-03-03T10:12:48.410Z,2.03
2023-03-03T10:15:33.937Z,2.17
2023-03-03T10:18:32.240Z,1.30
2023-03-03T10:21:13.238Z,2.50
2023-03-03T10:23:59.324Z,1.23
2023-03-03T10:27:12.921Z,2.17
2023-03-03T10:29:59.925Z,1.05
2023-03-03T10:32:37.172Z,0.90
2023-03-03T10:35:20.929Z,0.80
2023-03-03T10:37:50.838Z,1.10
2023-03-03T10:40:35.749Z,1.58
2023-03-03T10:43:31.240Z,1.13
2023-03-03T10:46:40.431Z,1.17
2023-03-03T10:49:28.623Z,1.42
2023-03-03T10:52:32.053Z,1.20
2023-03-03T10:55:30.227Z,0.55
2023-03-03T10:58:33.345Z,0.75
2023-03-03T11:01:01.361Z,1.42
2023-03-03T11:03:57.849Z,1.75
2023-03-03T11:06:44.424Z,1.35
2023-03-03T11:09:50.140Z,1.85
2023-03-03T11:12:49.466Z,0.75
2023-03-03T11:15:31.681Z,0.85
2023-03-03T11:18:32.036Z,3.28
2023-03-03T11:21:24.542Z,1.80
2023-03-03T11:24:06.605Z,1.75
2023-03-03T11:26:45.530Z,2.47
2023-03-03T11:29:28.147Z,2.05
2023-03-03T11:31:55.409Z,1.40
2023-03-03T11:34:25.268Z,1.75
2023-03-03T11:37:04.126Z,2.05
2023-03-03T11:39:31.488Z,0.93
2023-03-03T11:42:25.792Z,1.48
2023-03-03T11:45:00.510Z,1.55
2023-03-03T11:47:40.471Z,1.10
2023-03-03T11:50:36.731Z,1.10
2023-03-03T11:53:23.372Z,2.67
2023-03-03T11:56:11.150Z,1.60
2023-03-03T11:59:00.752Z,1.35
2023-03-03T12:01:39.904Z,1.60
2023-03-03T12:04:23.256Z,1.58
2023-03-03T12:07:21.762Z,0.88
2023-03-03T12:10:23.654Z,1.90
2023-03-03T12:13:23.510Z,1.63
2023-03-03T12:16:29.156Z,0.82
2023-03-03T12:19:05.294Z,1.20
2023-03-03T12:22:01.267Z,0.93
2023-03-03T12:24:54.318Z,2.08
2023-03-03T12:27:42.899Z,0.88
2023-03-03T12:30:28.792Z,1.92
2023-03-03T12:33:37.278Z,0.80
2023-03-03T12:36:20.583Z,1.17
2023-03-03T12:39:03.446Z,1.73
2023-03-03T12:41:46.557Z,3.22
2023-03-03T12:44:27.304Z,2.47
2023-03-03T12:47:05.820Z,1.30
2023-03-03T12:50:06.561Z,2.17
2023-03-03T12:52:56.022Z,1.50
2023-03-03T12:55:34.378Z,1.05
2023-03-03T12:58:31.478Z,1.17
2023-03-03T13:01:20.226Z,0.85
2023-03-03T13:03:56.170Z,1.45
2023-03-03T13:06:32.458Z,0.60
2023-03-03T13:09:18.555Z,1.73
2023-03-03T13:11:53.675Z,0.75
2023-03-03T13:15:05.800Z,0.98
2023-03-03T13:17:49.402Z,1.23
2023-03-03T13:20:25.662Z,0.85
2023-03-03T13:23:08.338Z,1.98
2023-03-03T13:25:38.348Z,1.90
2023-03-03T13:28:29.178Z,0.55
2023-03-03T13:31:20.339Z,3.00
2023-03-03T13:33:55.987Z,1.20
2023-03-03T13:36:52.870Z,0.75
2023-03-03T13:40:06.096Z,1.67
2023-03-03T13:42:38.913Z,1.58
2023-03-03T13:45:27.728Z,1.23
2023-03-03T13:48:26.196Z,1.08
2023-03-03T13:50:58.531Z,1.73
2023-03-03T13:53:41.964Z,0.75
2023-03-03T13:56:48.155Z,1.35
2023-03-03T13:59:31.121Z,1.23
2023-03-03T14:02:41.012Z,1.52
2023-03-03T14:05:16.648Z,1.02
2023-03-03T14:08:15.080Z,2.17
2023-03-03T14:11:26.598Z,1.58
2023-03-03T14:14:12.778Z,1.13
2023-03-03T14:17:03.279Z,0.90
2023-03-03T14:19:53.277Z,1.10
2023-03-03T14:22:34.946Z,0.90
2023-03-03T14:25:08.253Z,1.83
2023-03-03T14:27:40.780Z,0.93
2023-03-03T14:30:23.394Z,2.25
2023-03-03T14:33:20.754Z,1.95
2023-03-03T14:35:51.845Z,5.82
2023-03-03T14:38:25.560Z,4.00
2023-03-03T14:41:10.446Z,1.77
2023-03-03T14:43:40.774Z,1.83
2023-03-03T14:46:32.610Z,2.30
2023-03-03T14:49:03.681Z,4.18
2023-03-03T14:51:41.575Z,3.67
2023-03-03T14:54:21.541Z,1.80
2023-03-03T14:57:19.665Z,1.50
2023-03-03T15:00:11.244Z,3.20
2023-03-03T15:02:43.801Z,2.30
2023-03-03T15:05:22.686Z,1.83
2023-03-03T15:08:09.377Z,1.50
2023-03-03T15:10:42.422Z,3.38
2023-03-03T15:13:22.142Z,1.50
2023-03-03T15:16:04.581Z,1.60
2023-03-03T15:18:34.189Z,1.52
2023-03-03T15:21:19.247Z,1.17
2023-03-03T15:23:59.093Z,3.03
2023-03-03T15:26:57.828Z,4.32
2023-03-03T15:29:28.755Z,1.92
2023-03-03T15:32:31.017Z,1.55
2023-03-03T15:35:12.919Z,2.28
2023-03-03T15:38:15.436Z,10.98
2023-03-03T15:40:50.537Z,7.38
2023-03-03T15:43:33.694Z,12.48
2023-03-03T15:46:29.986Z,6.22
2023-03-03T15:49:38.468Z,2.33
2023-03-03T15:52:23.928Z,27.38
2023-03-03T15:54:54.674Z,4.95
2023-03-03T15:58:11.610Z,8.00
2023-03-03T16:00:50.924Z,2.67
2023-03-03T16:03:22.357Z,27.27
2023-03-03T16:05:50.008Z,51.80
2023-03-03T16:08:23.182Z,78.85
2023-03-03T16:11:10.005Z,50.83
2023-03-03T16:14:22.007Z,46.65
2023-03-03T16:16:58.385Z,25.00
2023-03-03T16:19:41.598Z,19.02
2023-03-03T16:22:39.795Z,50.10
2023-03-03T16:25:26.112Z,39.30
2023-03-03T16:28:06.089Z,142.82
2023-03-03T16:30:47.583Z,66.80
2023-03-03T16:33:14.796Z,79.60
2023-03-03T16:36:23.797Z,50.80
2023-03-03T16:38:59.653Z,34.83
2023-03-03T16:41:38.259Z,31.25
2023-03-03T16:44:31.653Z,31.45
2023-03-03T16:47:20.243Z,35.85
2023-03-03T16:49:48.254Z,20.25
2023-03-03T16:52:25.226Z,29.15
2023-03-03T16:55:13.944Z,25.85
2023-03-03T16:57:51.706Z,25.42
2023-03-03T17:00:24.522Z,19.13
2023-03-03T17:03:23.812Z,23.33
2023-03-03T17:06:11.655Z,14.32
2023-03-03T17:08:50.608Z,14.43
2023-03-03T17:11:36.532Z,11.27
2023-03-03T17:14:21.785Z,10.77
2023-03-03T17:17:01.439Z,9.52
2023-03-03T17:19:57.609Z,17.30
2023-03-03T17:22:40.675Z,8.80
2023-03-03T17:25:07.867Z,15.60
2023-03-03T17:27:56.872Z,10.32
2023-03-03T17:30:46.150Z,35.67
2023-03-03T17:33:31.304Z,24.77
2023-03-03T17:36:33.815Z,10.65
2023-03-03T17:39:20.314Z,9.43
2023-03-03T17:42:46.334Z,10.52
2023-03-03T17:45:17.431Z,26.73
2023-03-03T17:47:56.733Z,24.60
2023-03-03T17:50:41.921Z,17.52
2023-03-03T17:53:09.042Z,16.42
2023-03-03T17:56:03.258Z,25.98
2023-03-03T17:58:43.235Z,18.48
2023-03-03T18:01:31.711Z,25.08
2023-03-03T18:04:30.744Z,28.23
2023-03-03T18:07:18.631Z,24.73
2023-03-03T18:09:51.801Z,17.55
2023-03-03T18:12:53.881Z,29.35
2023-03-03T18:16:11.125Z,29.23
2023-03-03T18:18:42.020Z,23.30
2023-03-03T18:21:11.796Z,16.77
2023-03-03T18:23:44.582Z,79.15
2023-03-03T18:26:30.425Z,41.20
2023-03-03T18:29:28.442Z,26.42
2023-03-03T18:31:59.016Z,31.55
2023-03-03T18:34:35.571Z,44.30
2023-03-03T18:37:23.214Z,23.05
2023-03-03T18:40:11.087Z,32.38
2023-03-03T18:42:47.466Z,36.10
2023-03-03T18:45:20.551Z,30.30
2023-03-03T18:48:15.283Z,34.67
2023-03-03T18:50:48.582Z,36.83
2023-03-03T18:53:52.694Z,31.17
2023-03-03T18:56:56.368Z,31.77
2023-03-03T18:59:36.248Z,28.13
2023-03-03T19:02:18.523Z,25.05
2023-03-03T19:04:55.711Z,29.55
2023-03-03T19:07:30.658Z,29.05
2023-03-03T19:10:02.172Z,19.20
2023-03-03T19:13:09.261Z,24.63
2023-03-03T19:15:46.680Z,21.90
2023-03-03T19:18:34.098Z,32.28
2023-03-03T19:21:07.222Z,29.33
2023-03-03T19:24:00.496Z,17.98
2023-03-03T19:26:33.826Z,15.80
2023-03-03T19:29:32.057Z,13.93
2023-03-03T19:32:44.440Z,20.27
2023-03-03T19:35:23.888Z,26.38
2023-03-03T19:37:51.320Z,15.13
2023-03-03T19:40:43.240Z,23.98
2023-03-03T19:43:40.386Z,17.92
2023-03-03T19:46:26.695Z,13.38
2023-03-03T19:49:00.696Z,13.93
2023-03-03T19:52:00.548Z,15.90
2023-03-03T19:54:47.016Z,21.52
2023-03-03T19:57:36.154Z,24.15
2023-03-03T20:00:22.267Z,21.38
2023-03-03T20:03:16.312Z,23.90
2023-03-03T20:05:51.440Z,20.75
2023-03-03T20:08:39.610Z,16.70
2023-03-03T20:11:19.509Z,14.40
2023-03-03T20:14:01.530Z,20.30
2023-03-03T20:16:57.216Z,17.42
2023-03-03T20:19:59.215Z,13.40
2023-03-03T20:22:51.356Z,10.00
2023-03-03T20:25:34.128Z,20.45
2023-03-03T20:28:43.199Z,23.75
2023-03-03T20:32:04.129Z,22.88
2023-03-03T20:34:35.683Z,16.37
2023-03-03T20:38:01.459Z,19.73
2023-03-03T20:40:43.275Z,20.63
2023-03-03T20:43:32.041Z,9.98
2023-03-03T20:46:17.807Z,22.15
2023-03-03T20:49:22.001Z,26.05
2023-03-03T20:52:26.698Z,32.20
2023-03-03T20:55:24.509Z,34.00
2023-03-03T20:58:09.510Z,36.50
2023-03-03T21:00:50.130Z,23.73
2023-03-03T21:03:35.385Z,25.63
2023-03-03T21:06:10.088Z,26.73
2023-03-03T21:08:44.356Z,25.45
2023-03-03T21:11:38.885Z,18.23
2023-03-03T21:14:36.860Z,19.17
2023-03-03T21:17:27.903Z,26.42
2023-03-03T21:19:55.068Z,19.38
2023-03-03T21:22:22.518Z,20.83
2023-03-03T21:24:59.317Z,16.55
2023-03-03T21:27:34.101Z,22.30
2023-03-03T21:30:17.853Z,16.38
2023-03-03T21:32:48.330Z,16.30
2023-03-03T21:35:18.953Z,11.38
2023-03-03T21:37:54.193Z,11.02
2023-03-03T21:40:28.019Z,9.32
2023-03-03T21:42:58.224Z,12.40
2023-03-03T21:45:26.358Z,12.23
2023-03-03T21:48:02.038Z,12.05
2023-03-03T21:50:33.492Z,10.75
2023-03-03T21:53:00.756Z,6.10
2023-03-03T21:55:28.042Z,7.85
2023-03-03T21:57:56.802Z,5.10
2023-03-03T22:00:24.104Z,13.23
2023-03-03T22:02:53.098Z,12.25
2023-03-03T22:05:20.342Z,14.68
2023-03-03T22:07:47.511Z,23.90
2023-03-03T22:10:14.864Z,19.92
2023-03-03T22:12:42.296Z,13.93
2023-03-03T22:15:09.744Z,12.07
2023-03-03T22:17:39.799Z,9.65
2023-03-03T22:20:07.750Z,12.48
2023-03-03T22:22:34.916Z,7.65
2023-03-03T22:25:02.285Z,4.65
2023-03-03T22:27:29.519Z,20.90
2023-03-03T22:29:56.882Z,16.95
2023-03-03T22:32:24.099Z,17.42
2023-03-03T22:34:51.259Z,22.67
2023-03-03T22:37:18.251Z,16.05
2023-03-03T22:39:45.970Z,15.57
2023-03-03T22:42:13.761Z,11.95
2023-03-03T22:44:41.233Z,10.75
2023-03-03T22:47:08.592Z,6.55
2023-03-03T22:49:35.886Z,7.80
2023-03-03T22:52:03.094Z,9.32
2023-03-03T22:54:30.610Z,5.45
2023-03-03T22:56:57.766Z,3.28
2023-03-03T22:59:24.954Z,5.05
2023-03-03T23:01:52.684Z,5.63
2023-03-03T23:04:19.935Z,3.58
2023-03-03T23:06:47.660Z,5.00
2023-03-03T23:09:14.615Z,5.90
2023-03-03T23:11:41.723Z,4.05
2023-03-03T23:14:09.467Z,5.60
2023-03-03T23:16:36.436Z,2.55
2023-03-03T23:19:03.505Z,2.35
2023-03-03T23:21:30.390Z,3.45
2023-03-03T23:23:57.545Z,5.65
2023-03-03T23:26:24.512Z,3.28
2023-03-03T23:28:51.599Z,3.67
2023-03-03T23:31:18.701Z,3.95
2023-03-03T23:33:45.642Z,2.45
2023-03-03T23:36:12.703Z,2.22
2023-03-03T23:38:41.831Z,4.53
2023-03-03T23:41:09.916Z,2.97
2023-03-03T23:43:36.791Z,3.17
2023-03-03T23:46:03.767Z,1.85
2023-03-03T23:48:30.718Z,2.90
2023-03-03T23:50:57.571Z,3.17
2023-03-03T23:53:24.496Z,5.47
2023-03-03T23:55:51.335Z,4.30
2023-03-03T23:58:18.220Z,5.05
